Crystal Springs, Utah
Current Conditions -  °F | °C
As of 7:35 AM on Tuesday 27 Jan 2015 (Local Time) from KBMC Reporting Station
Clear Clear  
Wind Chill: 30°   Ceiling: Unl
Heat Index: 30°   Visibility: 5mi
Dew Point: 28°   Wind: 0mph
Humidity: 92%   Direction: NA
Pressure: 30.21"   Gusts: NA
Location:  41.6146°N, 112.071°W
Report Text: KBMC 271435Z AUTO 00000KT 5SM CLR M01/M02 A3021 RMK AO1 T10131024
Loading
Personal Weather Stations






























Interactive Weather Map New forecast layout! Learn more

10-Day Weather Forecast

Advertisements
Track Severe Weather on mobile